Alvin, Texas
Current Conditions -  °F | °C
As of 11:53 AM on Friday 24 Oct 2014 (Local Time) from KLVJ Reporting Station
Clear Clear  
Wind Chill: 74°   Ceiling: Unl
Heat Index: 74°   Visibility: 10mi
Dew Point: 49°   Wind: 8mph
Humidity: 41%   Direction: 50°NE
Pressure: 30.18"   Gusts: NA
Location:  29.42°N, 95.24°W
Report Text: KLVJ 241653Z AUTO 05007KT 10SM CLR 23/09 A3018 RMK AO2 SLP218 T02330094
Loading
Personal Weather Stations






























Interactive Weather Map
Tropical Storm Tracking
New forecast layout! Learn more

10-Day Weather Forecast

Advertisements
Track Severe Weather on mobile